Terminal Aerodrome Forecast
Issued by NWS

Home | Current Version | Previous Version | Text Only | Print | Product List | Glossary On
Versions: 1 2 3 4 5 6 7 8 9 10 11 12 13 14 15 16 17 18 19 20 21 22 23
757
FTUS43 KMQT 271134
TAFIWD
TAF
KIWD 271134Z 2712/2812 00000KT P6SM BKN120
     FM271700 07004KT P6SM VCSH OVC110
     FM280100 11005KT P6SM OVC035
     FM280600 14004KT 4SM BR OVC003=

USA.gov is the U.S. government's official web portal to all federal, state and local government web resources and services.